createdAt,value
2019-02-20T00:00:42.018Z,7.4
2019-02-20T00:01:41.998Z,7.4
2019-02-20T00:02:42.016Z,7.4
2019-02-20T00:03:42.006Z,7.4
2019-02-20T00:04:42.021Z,7.4
2019-02-20T00:05:42.058Z,7.5
2019-02-20T00:06:42.082Z,7.5
2019-02-20T00:07:42.076Z,7.5
2019-02-20T00:08:42.114Z,7.5
2019-02-20T00:09:42.080Z,7.5
2019-02-20T00:10:42.079Z,7.5
2019-02-20T00:12:00.640Z,7.5
2019-02-20T00:12:42.106Z,7.5
2019-02-20T00:13:42.125Z,7.5
2019-02-20T00:14:42.129Z,7.5
2019-02-20T00:15:42.112Z,7.5
2019-02-20T00:16:42.152Z,7.5
2019-02-20T00:17:42.165Z,7.5
2019-02-20T00:18:42.145Z,7.5
2019-02-20T00:19:42.151Z,7.5
2019-02-20T00:20:42.163Z,7.5
2019-02-20T00:21:42.192Z,7.5
2019-02-20T00:22:42.200Z,7.5
2019-02-20T00:23:42.235Z,7.5
2019-02-20T00:24:42.240Z,7.5
2019-02-20T00:25:42.228Z,7.5
2019-02-20T00:26:42.222Z,7.5
2019-02-20T00:27:42.226Z,7.4
2019-02-20T00:28:42.258Z,7.4
2019-02-20T00:29:42.226Z,7.4
2019-02-20T00:30:42.514Z,7.4
2019-02-20T00:31:42.279Z,7.4
2019-02-20T00:32:42.305Z,7.4
2019-02-20T00:33:42.342Z,7.3
2019-02-20T00:34:42.560Z,7.3
2019-02-20T00:35:42.376Z,7.3
2019-02-20T00:36:42.379Z,7.3
2019-02-20T00:37:42.330Z,7.3
2019-02-20T00:38:42.372Z,7.3
2019-02-20T00:39:42.365Z,7.3
2019-02-20T00:40:42.368Z,7.3
2019-02-20T00:41:42.393Z,7.2
2019-02-20T00:42:42.405Z,7.2
2019-02-20T00:43:42.373Z,7.2
2019-02-20T00:44:42.399Z,7.2
2019-02-20T00:45:42.410Z,7.2
2019-02-20T00:46:42.417Z,7.2
2019-02-20T00:47:42.438Z,7.2
2019-02-20T00:48:42.482Z,7.2
2019-02-20T00:49:42.419Z,7.2
2019-02-20T00:50:42.425Z,7.2
2019-02-20T00:51:42.428Z,7.2
2019-02-20T00:52:49.549Z,7.2
2019-02-20T00:53:42.458Z,7.2
2019-02-20T00:54:42.474Z,7.1
2019-02-20T00:55:42.454Z,7.1
2019-02-20T00:56:42.527Z,7.1
2019-02-20T00:57:42.515Z,7.1
2019-02-20T00:58:42.506Z,7.1
2019-02-20T00:59:42.526Z,7.1
2019-02-20T01:00:42.544Z,7
2019-02-20T01:01:42.522Z,7
2019-02-20T01:02:42.529Z,7
2019-02-20T01:03:42.577Z,7
2019-02-20T01:04:42.587Z,7
2019-02-20T01:05:42.605Z,6.9
2019-02-20T01:06:45.242Z,6.9
2019-02-20T01:07:42.600Z,6.9
2019-02-20T01:08:42.607Z,6.9
2019-02-20T01:09:42.601Z,6.8
2019-02-20T01:10:42.826Z,6.8
2019-02-20T01:11:42.629Z,6.8
2019-02-20T01:12:42.641Z,6.8
2019-02-20T01:13:42.663Z,6.8
2019-02-20T01:14:42.678Z,6.8
2019-02-20T01:15:42.628Z,6.8
2019-02-20T01:16:42.641Z,6.8
2019-02-20T01:17:42.647Z,6.8
2019-02-20T01:18:42.641Z,6.7
2019-02-20T01:19:42.659Z,6.7
2019-02-20T01:20:42.725Z,6.7
2019-02-20T01:21:42.683Z,6.7
2019-02-20T01:22:42.681Z,6.7
2019-02-20T01:23:42.711Z,6.7
2019-02-20T01:24:42.757Z,6.7
2019-02-20T01:25:42.706Z,6.6
2019-02-20T01:26:42.741Z,6.6
2019-02-20T01:27:42.756Z,6.6
2019-02-20T01:28:42.763Z,6.6
2019-02-20T01:29:42.808Z,6.6
2019-02-20T01:30:42.827Z,6.5
2019-02-20T01:31:42.805Z,6.5
2019-02-20T01:32:42.806Z,6.5
2019-02-20T01:33:42.825Z,6.5
2019-02-20T01:34:42.828Z,6.5
2019-02-20T01:35:42.874Z,6.4
2019-02-20T01:36:42.834Z,6.4
2019-02-20T01:37:42.851Z,6.4
2019-02-20T01:38:42.873Z,6.4
2019-02-20T01:39:42.845Z,6.3
2019-02-20T01:40:42.853Z,6.3
2019-02-20T01:41:42.852Z,6.3
2019-02-20T01:42:42.887Z,6.3
2019-02-20T01:43:42.864Z,6.3
2019-02-20T01:44:43.103Z,6.3
2019-02-20T01:45:42.877Z,6.3
2019-02-20T01:46:43.029Z,6.2
2019-02-20T01:47:42.962Z,6.2
2019-02-20T01:48:43.044Z,6.2
2019-02-20T01:49:42.928Z,6.2
2019-02-20T01:50:42.951Z,6.2
2019-02-20T01:51:44.911Z,6.2
2019-02-20T01:52:42.979Z,6.2
2019-02-20T01:53:42.985Z,6.2
2019-02-20T01:54:43.009Z,6.2
2019-02-20T01:55:43.027Z,6.2
2019-02-20T01:56:43.006Z,6.2
2019-02-20T01:57:43.017Z,6.2
2019-02-20T01:58:43.071Z,6.2
2019-02-20T01:59:43.079Z,6.2
2019-02-20T02:00:43.131Z,6.2
2019-02-20T02:01:43.042Z,6.2
2019-02-20T02:02:43.070Z,6.2
2019-02-20T02:03:43.061Z,6.2
2019-02-20T02:04:43.126Z,6.2
2019-02-20T02:05:43.083Z,6.2
2019-02-20T02:06:43.105Z,6.2
2019-02-20T02:07:43.072Z,6.2
2019-02-20T02:08:43.105Z,6.2
2019-02-20T02:09:43.097Z,6.2
2019-02-20T02:10:43.100Z,6.1
2019-02-20T02:11:43.197Z,6.1
2019-02-20T02:12:43.167Z,6.1
2019-02-20T02:13:43.149Z,6.1
2019-02-20T02:14:43.204Z,6.1
2019-02-20T02:15:43.168Z,6.2
2019-02-20T02:16:44.254Z,6.1
2019-02-20T02:17:43.291Z,6.1
2019-02-20T02:18:43.225Z,6.1
2019-02-20T02:19:43.239Z,6.1
2019-02-20T02:20:44.541Z,6.1
2019-02-20T02:21:43.249Z,6.1
2019-02-20T02:22:43.366Z,6
2019-02-20T02:23:43.311Z,6
2019-02-20T02:24:43.272Z,6
2019-02-20T02:25:43.248Z,6
2019-02-20T02:26:43.300Z,6
2019-02-20T02:27:43.303Z,6
2019-02-20T02:28:43.285Z,6
2019-02-20T02:29:43.286Z,6
2019-02-20T02:30:43.291Z,6
2019-02-20T02:31:43.303Z,6
2019-02-20T02:32:43.317Z,6
2019-02-20T02:33:43.339Z,6
2019-02-20T02:34:43.309Z,6
2019-02-20T02:35:43.315Z,6
2019-02-20T02:36:43.314Z,6
2019-02-20T02:37:43.418Z,6
2019-02-20T02:38:43.326Z,6
2019-02-20T02:39:43.475Z,5.9
2019-02-20T02:40:43.375Z,5.9
2019-02-20T02:41:44.804Z,5.9
2019-02-20T02:42:43.423Z,5.9
2019-02-20T02:43:43.375Z,5.9
2019-02-20T02:44:43.472Z,5.9
2019-02-20T02:45:43.433Z,5.9
2019-02-20T02:46:43.538Z,5.9
2019-02-20T02:47:43.513Z,5.9
2019-02-20T02:48:43.513Z,5.9
2019-02-20T02:49:43.471Z,5.9
2019-02-20T02:50:43.453Z,5.8
2019-02-20T02:51:43.487Z,5.8
2019-02-20T02:52:43.607Z,5.8
2019-02-20T02:53:43.508Z,5.8
2019-02-20T02:54:43.498Z,5.8
2019-02-20T02:55:43.684Z,5.8
2019-02-20T02:56:43.468Z,5.8
2019-02-20T02:57:43.640Z,5.8
2019-02-20T02:58:43.488Z,5.8
2019-02-20T02:59:43.548Z,5.8
2019-02-20T03:00:43.636Z,5.8
2019-02-20T03:01:43.502Z,5.7
2019-02-20T03:02:43.525Z,5.7
2019-02-20T03:03:43.546Z,5.7
2019-02-20T03:04:43.582Z,5.7
2019-02-20T03:05:43.616Z,5.6
2019-02-20T03:06:43.514Z,5.6
2019-02-20T03:07:43.558Z,5.6
2019-02-20T03:08:43.519Z,5.7
2019-02-20T03:09:43.562Z,5.6
2019-02-20T03:10:43.567Z,5.6
2019-02-20T03:11:43.574Z,5.6
2019-02-20T03:12:43.573Z,5.6
2019-02-20T03:13:43.549Z,5.6
2019-02-20T03:14:43.608Z,5.6
2019-02-20T03:15:43.606Z,5.6
2019-02-20T03:16:43.570Z,5.6
2019-02-20T03:17:43.578Z,5.6
2019-02-20T03:18:43.598Z,5.5
2019-02-20T03:19:43.626Z,5.5
2019-02-20T03:20:43.600Z,5.5
2019-02-20T03:21:43.568Z,5.5
2019-02-20T03:22:43.589Z,5.5
2019-02-20T03:23:43.583Z,5.4
2019-02-20T03:24:43.635Z,5.4
2019-02-20T03:25:43.601Z,5.4
2019-02-20T03:26:43.611Z,5.4
2019-02-20T03:27:43.606Z,5.4
2019-02-20T03:28:43.619Z,5.4
2019-02-20T03:29:43.638Z,5.3
2019-02-20T03:30:43.594Z,5.3
2019-02-20T03:31:43.638Z,5.3
2019-02-20T03:32:43.648Z,5.3
2019-02-20T03:33:43.627Z,5.3
2019-02-20T03:34:43.680Z,5.2
2019-02-20T03:35:43.654Z,5.2
2019-02-20T03:36:43.646Z,5.2
2019-02-20T03:37:43.706Z,5.1
2019-02-20T03:38:43.763Z,5.1
2019-02-20T03:39:43.743Z,5.1
2019-02-20T03:40:43.689Z,5.1
2019-02-20T03:41:43.730Z,5.1
2019-02-20T03:42:43.672Z,5
2019-02-20T03:43:43.690Z,5
2019-02-20T03:44:43.740Z,5
2019-02-20T03:45:43.709Z,5
2019-02-20T03:46:43.773Z,4.9
2019-02-20T03:47:43.718Z,4.9
2019-02-20T03:48:43.786Z,4.9
2019-02-20T03:49:43.780Z,4.9
2019-02-20T03:50:43.797Z,4.9
2019-02-20T03:51:43.753Z,4.9
2019-02-20T03:52:43.774Z,4.8
2019-02-20T03:53:51.093Z,4.8
2019-02-20T03:54:43.986Z,4.8
2019-02-20T03:55:44.089Z,4.8
2019-02-20T03:56:43.864Z,4.8
2019-02-20T03:57:43.831Z,4.8
2019-02-20T03:58:43.885Z,4.8
2019-02-20T03:59:43.848Z,4.8
2019-02-20T04:00:43.913Z,4.7
2019-02-20T04:01:43.897Z,4.7
2019-02-20T04:02:43.865Z,4.7
2019-02-20T04:03:43.891Z,4.7
2019-02-20T04:04:44.051Z,4.7
2019-02-20T04:05:43.920Z,4.7
2019-02-20T04:06:43.939Z,4.7
2019-02-20T04:07:44.053Z,4.7
2019-02-20T04:08:43.908Z,4.8
2019-02-20T04:09:43.917Z,4.8
2019-02-20T04:10:44.960Z,4.8
2019-02-20T04:11:44.428Z,4.8
2019-02-20T04:12:44.007Z,4.8
2019-02-20T04:13:43.982Z,4.8
2019-02-20T04:14:44.000Z,4.8
2019-02-20T04:15:44.181Z,4.8
2019-02-20T04:16:44.064Z,4.8
2019-02-20T04:17:44.011Z,4.8
2019-02-20T04:18:44.082Z,4.8
2019-02-20T04:19:44.044Z,4.8
2019-02-20T04:20:44.020Z,4.8
2019-02-20T04:21:49.034Z,4.8
2019-02-20T04:22:44.071Z,4.8
2019-02-20T04:23:44.074Z,4.8
2019-02-20T04:24:44.199Z,4.8
2019-02-20T04:25:44.055Z,4.8
2019-02-20T04:26:49.125Z,4.8
2019-02-20T04:27:44.131Z,4.7
2019-02-20T04:28:44.209Z,4.7
2019-02-20T04:29:49.094Z,4.7
2019-02-20T04:30:44.132Z,4.7
2019-02-20T04:31:44.230Z,4.7
2019-02-20T04:32:44.122Z,4.7
2019-02-20T04:33:44.121Z,4.7
2019-02-20T04:34:44.172Z,4.7
2019-02-20T04:35:44.127Z,4.7
2019-02-20T04:36:44.127Z,4.8
2019-02-20T04:37:44.167Z,4.8
2019-02-20T04:38:44.284Z,4.9
2019-02-20T04:39:44.209Z,4.9
2019-02-20T04:40:44.210Z,4.9
2019-02-20T04:41:45.203Z,4.9
2019-02-20T04:42:44.243Z,5
2019-02-20T04:43:44.278Z,5
2019-02-20T04:44:44.253Z,5
2019-02-20T04:45:44.305Z,5
2019-02-20T04:46:44.266Z,5
2019-02-20T04:47:44.333Z,5
2019-02-20T04:48:44.294Z,5
2019-02-20T04:49:44.303Z,5
2019-02-20T04:50:44.299Z,5
2019-02-20T04:51:44.285Z,5
2019-02-20T04:52:44.306Z,5
2019-02-20T04:53:44.261Z,5
2019-02-20T04:54:44.291Z,5.1
2019-02-20T04:55:44.303Z,5.1
2019-02-20T04:56:44.274Z,5.1
2019-02-20T04:57:44.278Z,5.1
2019-02-20T04:58:44.271Z,5.1
2019-02-20T04:59:44.296Z,5.1
2019-02-20T05:00:44.349Z,5.2
2019-02-20T05:01:44.381Z,5.2
2019-02-20T05:02:44.359Z,5.2
2019-02-20T05:03:44.333Z,5.2
2019-02-20T05:04:44.453Z,5.2
2019-02-20T05:05:44.376Z,5.2
2019-02-20T05:06:44.410Z,5.2
2019-02-20T05:07:44.386Z,5.2
2019-02-20T05:08:44.403Z,5.2
2019-02-20T05:09:44.419Z,5.2
2019-02-20T05:10:44.425Z,5.1
2019-02-20T05:11:44.466Z,5.1
2019-02-20T05:12:44.444Z,5.1
2019-02-20T05:13:44.470Z,5.1
2019-02-20T05:14:44.468Z,5.1
2019-02-20T05:15:44.449Z,5.1
2019-02-20T05:16:44.465Z,5.1
2019-02-20T05:17:44.460Z,5.1
2019-02-20T05:18:44.528Z,5.1
2019-02-20T05:19:44.521Z,5.1
2019-02-20T05:20:44.501Z,5.1
2019-02-20T05:21:44.512Z,5.1
2019-02-20T05:22:44.495Z,5.1
2019-02-20T05:23:44.482Z,5.1
2019-02-20T05:24:44.504Z,5.2
2019-02-20T05:25:44.584Z,5.2
2019-02-20T05:26:44.590Z,5.2
2019-02-20T05:27:44.578Z,5.1
2019-02-20T05:28:44.593Z,5.1
2019-02-20T05:29:44.637Z,5.1
2019-02-20T05:30:44.630Z,5.1
2019-02-20T05:31:44.595Z,5.1
2019-02-20T05:32:44.608Z,5.1
2019-02-20T05:33:44.620Z,5.1
2019-02-20T05:34:44.653Z,5.1
2019-02-20T05:35:44.653Z,5.1
2019-02-20T05:36:44.691Z,5.1
2019-02-20T05:37:44.682Z,5.2
2019-02-20T05:38:44.690Z,5.2
2019-02-20T05:39:44.692Z,5.2
2019-02-20T05:40:44.713Z,5.2
2019-02-20T05:41:44.731Z,5.2
2019-02-20T05:42:44.794Z,5.3
2019-02-20T05:43:44.690Z,5.3
2019-02-20T05:44:44.785Z,5.3
2019-02-20T05:45:44.706Z,5.3
2019-02-20T05:46:44.807Z,5.3
2019-02-20T05:47:44.719Z,5.3
2019-02-20T05:48:44.735Z,5.3
2019-02-20T05:49:44.752Z,5.3
2019-02-20T05:50:44.772Z,5.3
2019-02-20T05:51:44.781Z,5.3
2019-02-20T05:52:44.781Z,5.3
2019-02-20T05:53:44.782Z,5.3
2019-02-20T05:54:44.798Z,5.3
2019-02-20T05:55:44.821Z,5.3
2019-02-20T05:56:44.862Z,5.3
2019-02-20T05:57:44.846Z,5.3
2019-02-20T05:58:44.856Z,5.4
2019-02-20T05:59:44.880Z,5.3
2019-02-20T06:00:44.851Z,5.3
2019-02-20T06:01:45.053Z,5.3
2019-02-20T06:02:44.902Z,5.3
2019-02-20T06:03:44.935Z,5.3
2019-02-20T06:04:44.868Z,5.3
2019-02-20T06:05:44.952Z,5.4
2019-02-20T06:06:45.091Z,5.4
2019-02-20T06:07:44.914Z,5.4
2019-02-20T06:08:44.928Z,5.4
2019-02-20T06:09:44.888Z,5.4
2019-02-20T06:10:44.906Z,5.4
2019-02-20T06:11:44.956Z,5.4
2019-02-20T06:12:44.918Z,5.4
2019-02-20T06:13:44.921Z,5.5
2019-02-20T06:14:44.924Z,5.5
2019-02-20T06:15:44.995Z,5.5
2019-02-20T06:16:45.002Z,5.5
2019-02-20T06:17:44.985Z,5.6
2019-02-20T06:18:49.997Z,5.6
2019-02-20T06:19:45.024Z,5.6
2019-02-20T06:20:45.078Z,5.6
2019-02-20T06:21:45.106Z,5.6
2019-02-20T06:22:45.080Z,5.6
2019-02-20T06:23:45.040Z,5.6
2019-02-20T06:24:45.104Z,5.7
2019-02-20T06:25:45.319Z,5.7
2019-02-20T06:26:45.063Z,5.7
2019-02-20T06:27:45.105Z,5.7
2019-02-20T06:28:45.103Z,5.7
2019-02-20T06:29:45.150Z,5.8
2019-02-20T06:30:45.134Z,5.8
2019-02-20T06:31:45.112Z,5.8
2019-02-20T06:32:45.132Z,5.9
2019-02-20T06:33:45.126Z,5.9
2019-02-20T06:34:45.143Z,5.9
2019-02-20T06:35:45.156Z,5.9
2019-02-20T06:36:45.150Z,6
2019-02-20T06:37:45.131Z,6
2019-02-20T06:38:45.147Z,6
2019-02-20T06:39:45.216Z,6
2019-02-20T06:40:45.154Z,6.1
2019-02-20T06:41:45.237Z,6.1
2019-02-20T06:42:45.207Z,6.1
2019-02-20T06:43:45.218Z,6.1
2019-02-20T06:44:45.211Z,6.1
2019-02-20T06:45:45.265Z,6.2
2019-02-20T06:46:45.238Z,6.2
2019-02-20T06:47:45.311Z,6.2
2019-02-20T06:48:45.298Z,6.2
2019-02-20T06:49:45.279Z,6.2
2019-02-20T06:50:45.296Z,6.2
2019-02-20T06:51:45.348Z,6.2
2019-02-20T06:52:45.375Z,6.3
2019-02-20T06:53:45.332Z,6.3
2019-02-20T06:54:53.452Z,6.3
2019-02-20T06:55:45.332Z,6.4
2019-02-20T06:56:45.329Z,6.4
2019-02-20T06:57:45.419Z,6.4
2019-02-20T06:58:45.322Z,6.4
2019-02-20T06:59:45.344Z,6.5
2019-02-20T07:00:45.371Z,6.5
2019-02-20T07:01:45.403Z,6.5
2019-02-20T07:02:45.377Z,6.5
2019-02-20T07:03:45.359Z,6.5
2019-02-20T07:04:45.405Z,6.6
2019-02-20T07:05:45.378Z,6.6
2019-02-20T07:06:45.441Z,6.6
2019-02-20T07:07:45.402Z,6.6
2019-02-20T07:08:45.423Z,6.7
2019-02-20T07:09:45.509Z,6.7
2019-02-20T07:10:45.494Z,6.7
2019-02-20T07:11:45.694Z,6.7
2019-02-20T07:12:45.610Z,6.8
2019-02-20T07:13:45.465Z,6.8
2019-02-20T07:14:45.494Z,6.8
2019-02-20T07:15:45.524Z,6.8
2019-02-20T07:16:50.497Z,6.8
2019-02-20T07:17:45.574Z,6.9
2019-02-20T07:18:45.546Z,6.9
2019-02-20T07:19:45.569Z,6.9
2019-02-20T07:20:45.576Z,6.9
2019-02-20T07:21:45.614Z,6.9
2019-02-20T07:22:45.536Z,7
2019-02-20T07:23:45.547Z,7
2019-02-20T07:24:45.567Z,7
2019-02-20T07:25:45.608Z,7
2019-02-20T07:26:45.591Z,7
2019-02-20T07:27:45.557Z,7
2019-02-20T07:28:45.633Z,7
2019-02-20T07:29:45.579Z,7
2019-02-20T07:30:45.627Z,7
2019-02-20T07:31:45.626Z,7
2019-02-20T07:32:45.659Z,7
2019-02-20T07:33:45.619Z,7
2019-02-20T07:34:45.657Z,7
2019-02-20T07:35:45.938Z,7.1
2019-02-20T07:36:45.680Z,7.1
2019-02-20T07:37:45.743Z,7.1
2019-02-20T07:38:45.682Z,7.1
2019-02-20T07:39:45.703Z,7.1
2019-02-20T07:40:45.721Z,7.1
2019-02-20T07:41:45.707Z,7.1
2019-02-20T07:42:45.787Z,7.2
2019-02-20T07:43:45.798Z,7.2
2019-02-20T07:44:45.743Z,7.2
2019-02-20T07:45:45.746Z,7.2
2019-02-20T07:46:45.796Z,7.2
2019-02-20T07:47:45.771Z,7.2
2019-02-20T07:48:45.814Z,7.2
2019-02-20T07:49:45.784Z,7.2
2019-02-20T07:50:45.778Z,7.3
2019-02-20T07:51:45.788Z,7.3
2019-02-20T07:52:45.802Z,7.3
2019-02-20T07:53:45.883Z,7.3
2019-02-20T07:54:45.804Z,7.3
2019-02-20T07:55:45.848Z,7.3
2019-02-20T07:56:45.898Z,7.3
2019-02-20T07:57:45.901Z,7.4
2019-02-20T07:58:45.931Z,7.4
2019-02-20T07:59:50.849Z,7.4
2019-02-20T08:00:46.023Z,7.4
2019-02-20T08:01:45.941Z,7.4
2019-02-20T08:02:45.913Z,7.5
2019-02-20T08:03:45.960Z,7.5
2019-02-20T08:04:45.998Z,7.5
2019-02-20T08:05:45.979Z,7.5
2019-02-20T08:06:45.976Z,7.5
2019-02-20T08:07:45.945Z,7.5
2019-02-20T08:08:46.063Z,7.5
2019-02-20T08:09:46.055Z,7.5
2019-02-20T08:10:45.972Z,7.6
2019-02-20T08:11:46.004Z,7.6
2019-02-20T08:12:46.015Z,7.6
2019-02-20T08:13:45.985Z,7.6
2019-02-20T08:14:46.066Z,7.6
2019-02-20T08:15:46.032Z,7.6
2019-02-20T08:16:52.165Z,7.6
2019-02-20T08:17:46.024Z,7.6
2019-02-20T08:18:46.033Z,7.6
2019-02-20T08:19:46.044Z,7.6
2019-02-20T08:20:46.042Z,7.7
2019-02-20T08:21:46.053Z,7.7
2019-02-20T08:22:46.131Z,7.7
2019-02-20T08:23:46.042Z,7.7
2019-02-20T08:24:46.118Z,7.7
2019-02-20T08:25:46.067Z,7.8
2019-02-20T08:26:46.081Z,7.8
2019-02-20T08:27:46.131Z,7.8
2019-02-20T08:28:46.102Z,7.8
2019-02-20T08:29:46.177Z,7.9
2019-02-20T08:30:46.181Z,7.9
2019-02-20T08:31:46.141Z,7.9
2019-02-20T08:32:46.145Z,7.9
2019-02-20T08:33:46.158Z,7.9
2019-02-20T08:34:46.215Z,7.9
2019-02-20T08:35:46.171Z,8
2019-02-20T08:36:46.243Z,8
2019-02-20T08:37:46.208Z,8
2019-02-20T08:38:46.213Z,8
2019-02-20T08:39:46.258Z,8
2019-02-20T08:40:46.230Z,8.1
2019-02-20T08:41:46.225Z,8.1
2019-02-20T08:42:46.210Z,8.1
2019-02-20T08:43:46.242Z,8.1
2019-02-20T08:44:46.236Z,8.2
2019-02-20T08:45:46.312Z,8.2
2019-02-20T08:46:46.250Z,8.2
2019-02-20T08:47:46.246Z,8.2
2019-02-20T08:48:46.284Z,8.3
2019-02-20T08:49:46.340Z,8.3
2019-02-20T08:50:46.290Z,8.3
2019-02-20T08:51:46.356Z,8.3
2019-02-20T08:52:46.493Z,8.4
2019-02-20T08:53:46.313Z,8.4
2019-02-20T08:54:46.307Z,8.4
2019-02-20T08:55:46.310Z,8.4
2019-02-20T08:56:46.387Z,8.5
2019-02-20T08:57:46.386Z,8.5
2019-02-20T08:58:46.343Z,8.5
2019-02-20T08:59:46.388Z,8.6
2019-02-20T09:00:46.361Z,8.6
2019-02-20T09:01:46.344Z,8.6
2019-02-20T09:02:46.418Z,8.6
2019-02-20T09:03:46.382Z,8.6
2019-02-20T09:04:46.379Z,8.6
2019-02-20T09:05:46.407Z,8.6
2019-02-20T09:06:46.390Z,8.6
2019-02-20T09:07:46.395Z,8.6
2019-02-20T09:08:46.470Z,8.6
2019-02-20T09:09:46.404Z,8.7
2019-02-20T09:10:46.408Z,8.7
2019-02-20T09:11:46.397Z,8.7
2019-02-20T09:12:46.412Z,8.7
2019-02-20T09:13:46.634Z,8.7
2019-02-20T09:14:46.469Z,8.7
2019-02-20T09:15:46.734Z,8.7
2019-02-20T09:16:46.437Z,8.8
2019-02-20T09:17:46.436Z,8.8
2019-02-20T09:18:46.481Z,8.8
2019-02-20T09:19:46.477Z,8.8
2019-02-20T09:20:46.450Z,8.8
2019-02-20T09:21:46.443Z,8.9
2019-02-20T09:22:46.468Z,8.9
2019-02-20T09:23:46.471Z,8.9
2019-02-20T09:24:46.482Z,9
2019-02-20T09:25:46.480Z,9
2019-02-20T09:26:46.496Z,9
2019-02-20T09:27:46.494Z,9.1
2019-02-20T09:28:46.505Z,9.1
2019-02-20T09:29:46.562Z,9.2
2019-02-20T09:30:46.522Z,9.2
2019-02-20T09:31:46.502Z,9.2
2019-02-20T09:32:46.508Z,9.2
2019-02-20T09:33:46.537Z,9.2
2019-02-20T09:34:46.531Z,9.2
2019-02-20T09:35:46.507Z,9.3
2019-02-20T09:36:46.516Z,9.3
2019-02-20T09:37:46.531Z,9.3
2019-02-20T09:38:46.551Z,9.4
2019-02-20T09:39:46.556Z,9.4
2019-02-20T09:40:46.573Z,9.4
2019-02-20T09:41:46.557Z,9.4
2019-02-20T09:42:46.582Z,9.4
2019-02-20T09:43:46.577Z,9.4
2019-02-20T09:44:46.574Z,9.4
2019-02-20T09:45:46.610Z,9.4
2019-02-20T09:46:46.580Z,9.4
2019-02-20T09:47:46.589Z,9.4
2019-02-20T09:48:46.621Z,9.4
2019-02-20T09:49:46.621Z,9.4
2019-02-20T09:50:47.744Z,9.4
2019-02-20T09:51:46.648Z,9.4
2019-02-20T09:52:52.153Z,9.5
2019-02-20T09:53:46.650Z,9.5
2019-02-20T09:54:46.647Z,9.5
2019-02-20T09:55:51.434Z,9.5
2019-02-20T09:56:46.659Z,9.6
2019-02-20T09:57:46.702Z,9.6
2019-02-20T09:58:46.665Z,9.6
2019-02-20T09:59:46.665Z,9.7
2019-02-20T10:00:46.710Z,9.7
2019-02-20T10:01:46.681Z,9.7
2019-02-20T10:02:47.339Z,9.7
2019-02-20T10:03:46.718Z,9.7
2019-02-20T10:04:46.741Z,9.7
2019-02-20T10:05:46.760Z,9.7
2019-02-20T10:06:46.786Z,9.8
2019-02-20T10:07:46.756Z,9.8
2019-02-20T10:08:46.840Z,9.8
2019-02-20T10:09:46.808Z,9.8
2019-02-20T10:10:46.958Z,9.8
2019-02-20T10:11:46.819Z,9.8
2019-02-20T10:12:46.837Z,9.8
2019-02-20T10:13:46.848Z,9.9
2019-02-20T10:14:46.906Z,9.9
2019-02-20T10:15:46.823Z,9.9
2019-02-20T10:16:46.871Z,10
2019-02-20T10:17:46.858Z,10
2019-02-20T10:18:46.837Z,10
2019-02-20T10:19:46.876Z,10
2019-02-20T10:20:46.838Z,10
2019-02-20T10:21:46.925Z,10
2019-02-20T10:22:46.860Z,10
2019-02-20T10:23:46.867Z,10
2019-02-20T10:24:46.870Z,10.1
2019-02-20T10:25:46.897Z,10.1
2019-02-20T10:26:46.988Z,10.1
2019-02-20T10:27:46.914Z,10.1
2019-02-20T10:28:46.925Z,10.1
2019-02-20T10:29:47.991Z,10.1
2019-02-20T10:30:46.978Z,10.1
2019-02-20T10:31:49.060Z,10.2
2019-02-20T10:32:47.017Z,10.2
2019-02-20T10:33:46.983Z,10.2
2019-02-20T10:34:47.002Z,10.3
2019-02-20T10:35:47.013Z,10.3
2019-02-20T10:36:47.016Z,10.3
2019-02-20T10:37:47.033Z,10.2
2019-02-20T10:38:47.015Z,10.3
2019-02-20T10:39:47.037Z,10.3
2019-02-20T10:40:47.080Z,10.3
2019-02-20T10:41:47.076Z,10.4
2019-02-20T10:42:47.063Z,10.4
2019-02-20T10:43:47.067Z,10.4
2019-02-20T10:44:47.144Z,10.4
2019-02-20T10:45:47.091Z,10.5
2019-02-20T10:46:47.105Z,10.5
2019-02-20T10:47:47.087Z,10.6
2019-02-20T10:48:47.079Z,10.6
2019-02-20T10:49:47.104Z,10.7
2019-02-20T10:50:47.110Z,10.8
2019-02-20T10:51:47.119Z,10.8
2019-02-20T10:52:47.179Z,10.9
2019-02-20T10:53:47.144Z,10.9
2019-02-20T10:54:47.172Z,10.9
2019-02-20T10:55:47.169Z,10.9
2019-02-20T10:56:47.244Z,10.9
2019-02-20T10:57:47.169Z,11
2019-02-20T10:58:47.214Z,10.9
2019-02-20T10:59:47.230Z,10.9
2019-02-20T11:00:47.219Z,10.9
2019-02-20T11:01:47.237Z,10.9
2019-02-20T11:02:47.217Z,10.9
2019-02-20T11:03:47.241Z,10.9
2019-02-20T11:04:47.250Z,10.9
2019-02-20T11:05:47.311Z,10.9
2019-02-20T11:06:47.276Z,11
2019-02-20T11:07:47.281Z,11
2019-02-20T11:08:47.253Z,11
2019-02-20T11:09:47.256Z,11.1
2019-02-20T11:10:47.290Z,11.1
2019-02-20T11:11:47.304Z,11.1
2019-02-20T11:12:47.245Z,11
2019-02-20T11:13:47.516Z,11
2019-02-20T11:14:48.885Z,11.1
2019-02-20T11:15:47.301Z,11.1
2019-02-20T11:16:47.369Z,11.1
2019-02-20T11:17:47.378Z,11.1
2019-02-20T11:18:47.365Z,11.1
2019-02-20T11:19:47.374Z,11.1
2019-02-20T11:20:48.529Z,11.2
2019-02-20T11:21:47.361Z,11.2
2019-02-20T11:22:48.593Z,11.2
2019-02-20T11:23:47.452Z,11.2
2019-02-20T11:24:47.403Z,11.2
2019-02-20T11:25:47.412Z,11.3
2019-02-20T11:26:54.198Z,11.3
2019-02-20T11:27:47.452Z,11.3
2019-02-20T11:28:47.487Z,11.3
2019-02-20T11:29:47.450Z,11.3
2019-02-20T11:30:47.450Z,11.3
2019-02-20T11:31:47.443Z,11.3
2019-02-20T11:32:47.438Z,11.2
2019-02-20T11:33:47.517Z,11.2
2019-02-20T11:34:47.471Z,11.2
2019-02-20T11:35:47.471Z,11.2
2019-02-20T11:36:49.310Z,11.2
2019-02-20T11:37:47.481Z,11.2
2019-02-20T11:38:47.492Z,11.2
2019-02-20T11:39:47.526Z,11.2
2019-02-20T11:40:47.559Z,11.2
2019-02-20T11:41:47.556Z,11.3
2019-02-20T11:42:47.570Z,11.3
2019-02-20T11:43:47.607Z,11.3
2019-02-20T11:44:47.608Z,11.3
2019-02-20T11:45:47.585Z,11.4
2019-02-20T11:46:47.639Z,11.4
2019-02-20T11:47:47.609Z,11.4
2019-02-20T11:48:47.614Z,11.4
2019-02-20T11:49:47.620Z,11.4
2019-02-20T11:50:47.635Z,11.4
2019-02-20T11:51:47.673Z,11.4
2019-02-20T11:52:47.655Z,11.4
2019-02-20T11:53:47.681Z,11.4
2019-02-20T11:54:47.911Z,11.5
2019-02-20T11:55:47.679Z,11.5
2019-02-20T11:56:47.931Z,11.5
2019-02-20T11:57:47.713Z,11.5
2019-02-20T11:58:47.695Z,11.5
2019-02-20T11:59:47.705Z,11.5
2019-02-20T12:00:47.707Z,11.4
2019-02-20T12:01:47.706Z,11.4
2019-02-20T12:02:47.715Z,11.3
2019-02-20T12:03:47.725Z,11.3
2019-02-20T12:04:47.749Z,11.3
2019-02-20T12:05:47.754Z,11.3
2019-02-20T12:06:47.784Z,11.4
2019-02-20T12:07:47.763Z,11.4
2019-02-20T12:08:47.796Z,11.5
2019-02-20T12:09:47.796Z,11.5
2019-02-20T12:10:47.796Z,11.5
2019-02-20T12:11:47.871Z,11.6
2019-02-20T12:12:47.872Z,11.6
2019-02-20T12:13:48.867Z,11.7
2019-02-20T12:14:47.892Z,11.7
2019-02-20T12:15:47.949Z,11.7
2019-02-20T12:16:47.870Z,11.7
2019-02-20T12:17:47.889Z,11.7
2019-02-20T12:18:47.853Z,11.7
2019-02-20T12:19:47.892Z,11.7
2019-02-20T12:20:47.948Z,11.7
2019-02-20T12:21:47.885Z,11.8
2019-02-20T12:22:47.927Z,11.8
2019-02-20T12:23:47.929Z,11.8
2019-02-20T12:24:47.937Z,11.9
2019-02-20T12:25:47.910Z,11.9
2019-02-20T12:26:47.896Z,12
2019-02-20T12:27:47.951Z,12
2019-02-20T12:28:47.938Z,12
2019-02-20T12:29:47.934Z,12.1
2019-02-20T12:30:47.929Z,12.1
2019-02-20T12:31:52.388Z,12.2
2019-02-20T12:32:47.976Z,12.2
2019-02-20T12:33:47.980Z,12.1
2019-02-20T12:34:48.015Z,12.1
2019-02-20T12:35:48.008Z,12.1
2019-02-20T12:36:48.019Z,12.1
2019-02-20T12:37:48.015Z,12.2
2019-02-20T12:38:48.010Z,12.2
2019-02-20T12:39:48.026Z,12.2
2019-02-20T12:40:48.062Z,12.2
2019-02-20T12:41:48.046Z,12.2
2019-02-20T12:42:48.060Z,12.2
2019-02-20T12:43:48.060Z,12.2
2019-02-20T12:44:48.094Z,12.2
2019-02-20T12:45:49.042Z,12.2
2019-02-20T12:46:48.067Z,12.2
2019-02-20T12:47:48.081Z,12.2
2019-02-20T12:48:48.099Z,12.2
2019-02-20T12:49:48.072Z,12.2
2019-02-20T12:50:48.145Z,12.3
2019-02-20T12:51:48.100Z,12.3
2019-02-20T12:52:48.109Z,12.3
2019-02-20T12:53:48.095Z,12.2
2019-02-20T12:54:48.077Z,12.2
2019-02-20T12:55:48.118Z,12.2
2019-02-20T12:56:48.187Z,12.2
2019-02-20T12:57:48.149Z,12.2
2019-02-20T12:58:48.203Z,12.2
2019-02-20T12:59:48.143Z,12.2
2019-02-20T13:00:48.170Z,12.3
2019-02-20T13:01:48.172Z,12.2
2019-02-20T13:02:48.203Z,12.2
2019-02-20T13:03:48.190Z,12.2
2019-02-20T13:04:48.257Z,12.1
2019-02-20T13:05:48.209Z,12.1
2019-02-20T13:06:48.236Z,12.1
2019-02-20T13:07:48.230Z,12.1
2019-02-20T13:08:48.221Z,12.1
2019-02-20T13:09:50.031Z,12.2
2019-02-20T13:10:48.238Z,12.2
2019-02-20T13:11:48.263Z,12.3
2019-02-20T13:12:48.262Z,12.3
2019-02-20T13:13:49.084Z,12.4
2019-02-20T13:14:48.286Z,12.4
2019-02-20T13:15:48.266Z,12.4
2019-02-20T13:16:48.268Z,12.3
2019-02-20T13:17:48.331Z,12.3
2019-02-20T13:18:48.287Z,12.2
2019-02-20T13:19:48.356Z,12.2
2019-02-20T13:20:48.314Z,12.1
2019-02-20T13:21:48.328Z,12.1
2019-02-20T13:22:48.333Z,12.1
2019-02-20T13:23:48.365Z,12
2019-02-20T13:24:48.363Z,11.9
2019-02-20T13:25:48.373Z,11.8
2019-02-20T13:26:52.709Z,11.8
2019-02-20T13:27:48.363Z,11.7
2019-02-20T13:28:48.394Z,11.7
2019-02-20T13:29:48.424Z,11.7
2019-02-20T13:30:48.397Z,11.7
2019-02-20T13:31:48.414Z,11.7
2019-02-20T13:32:48.418Z,11.6
2019-02-20T13:33:48.427Z,11.6
2019-02-20T13:34:48.492Z,11.5
2019-02-20T13:35:48.427Z,11.5
2019-02-20T13:36:48.477Z,11.5
2019-02-20T13:37:48.480Z,11.5
2019-02-20T13:38:48.477Z,11.5
2019-02-20T13:39:48.525Z,11.4
2019-02-20T13:40:48.476Z,11.4
2019-02-20T13:41:48.473Z,11.4
2019-02-20T13:42:48.477Z,11.4
2019-02-20T13:43:48.462Z,11.3
2019-02-20T13:44:48.509Z,11.3